CTN442 LDZA-LOWW
Flight info
| Callsign | CTN442 |
|---|---|
| Flight time | N/A |
| Altitude | 20000 |
| Route | OBUTI OBUTI2W |
| Aircraft | A319/M-SDE3FGHIRWY/LB1 |
Departure
| Time | N/A |
|---|---|
| Airport | Zagreb Franjo Tuđman International Airport (LDZA) |
Arrival
| Time | 2026-04-26 01:19 |
|---|---|
| Airport | Vienna International Airport (LOWW) |
| Time | Latitude | Longitude | Altitude | Speed | Heading |
|---|---|---|---|---|---|
| 2026-04-26 01:13 | 48.01913 | 16.63446 | 3008 ft | 248 kts | 116° |
| 2026-04-26 01:13 | 48.01067 | 16.65681 | 3010 ft | 247 kts | 115° |
| 2026-04-26 01:13 | 48.00228 | 16.67915 | 3012 ft | 246 kts | 115° |
| 2026-04-26 01:14 | 47.99646 | 16.70266 | 3012 ft | 238 kts | 88° |
| 2026-04-26 01:14 | 47.99924 | 16.72570 | 3012 ft | 217 kts | 53° |
| 2026-04-26 01:14 | 48.00891 | 16.74112 | 3013 ft | 197 kts | 25° |
| 2026-04-26 01:14 | 48.02106 | 16.74899 | 3011 ft | 187 kts | 6° |
| 2026-04-26 01:15 | 48.03379 | 16.74993 | 3012 ft | 181 kts | 348° |
| 2026-04-26 01:15 | 48.04565 | 16.74449 | 2999 ft | 179 kts | 332° |
| 2026-04-26 01:15 | 48.05556 | 16.73352 | 2872 ft | 177 kts | 315° |
| 2026-04-26 01:15 | 48.06232 | 16.71845 | 2712 ft | 173 kts | 301° |
| 2026-04-26 01:16 | 48.06748 | 16.70265 | 2474 ft | 163 kts | 300° |
| 2026-04-26 01:16 | 48.07217 | 16.68829 | 2270 ft | 149 kts | 300° |
| 2026-04-26 01:16 | 48.07659 | 16.67482 | 2081 ft | 141 kts | 300° |
| 2026-04-26 01:16 | 48.08082 | 16.66191 | 1889 ft | 133 kts | 300° |
| 2026-04-26 01:17 | 48.08482 | 16.64969 | 1721 ft | 128 kts | 300° |
| 2026-04-26 01:17 | 48.08867 | 16.63792 | 1533 ft | 124 kts | 300° |
| 2026-04-26 01:17 | 48.09251 | 16.62624 | 1355 ft | 127 kts | 296° |
| 2026-04-26 01:17 | 48.09640 | 16.61444 | 1196 ft | 125 kts | 297° |
| 2026-04-26 01:18 | 48.10021 | 16.60276 | 1021 ft | 124 kts | 296° |
| 2026-04-26 01:18 | 48.10399 | 16.59115 | 880 ft | 123 kts | 295° |
| 2026-04-26 01:18 | 48.10773 | 16.57967 | 689 ft | 122 kts | 294° |
| 2026-04-26 01:18 | 48.11135 | 16.56863 | 614 ft | 106 kts | 295° |
| 2026-04-26 01:19 | 48.11395 | 16.56056 | 614 ft | 62 kts | 296° |
| 2026-04-26 01:19 | 48.11537 | 16.55623 | 618 ft | 39 kts | 297° |
| 2026-04-26 01:19 | 48.11645 | 16.55370 | 608 ft | 27 kts | 313° |
| 2026-04-26 01:19 | 48.11756 | 16.55208 | 608 ft | 19 kts | 319° |
| 2026-04-26 01:20 | 48.11870 | 16.55151 | 609 ft | 18 kts | 27° |
| 2026-04-26 01:20 | 48.11852 | 16.55303 | 613 ft | 16 kts | 117° |
| 2026-04-26 01:20 | 48.11800 | 16.55458 | 615 ft | 17 kts | 115° |
| 2026-04-26 01:20 | 48.11749 | 16.55618 | 612 ft | 17 kts | 116° |
| 2026-04-26 01:21 | 48.11696 | 16.55781 | 612 ft | 18 kts | 115° |
| 2026-04-26 01:21 | 48.11643 | 16.55948 | 615 ft | 18 kts | 115° |
| 2026-04-26 01:21 | 48.11587 | 16.56117 | 617 ft | 18 kts | 117° |
| 2026-04-26 01:21 | 48.11531 | 16.56290 | 610 ft | 19 kts | 115° |
| 2026-04-26 01:22 | 48.11474 | 16.56465 | 610 ft | 19 kts | 117° |
| 2026-04-26 01:22 | 48.11414 | 16.56645 | 617 ft | 19 kts | 116° |
| 2026-04-26 01:22 | 48.11377 | 16.56762 | 614 ft | 7 kts | 105° |
| 2026-04-26 01:22 | 48.11397 | 16.56825 | 615 ft | 7 kts | 28° |
| 2026-04-26 01:23 | 48.11452 | 16.56861 | 612 ft | 10 kts | 26° |
| 2026-04-26 01:23 | 48.11517 | 16.56909 | 609 ft | 11 kts | 26° |
| 2026-04-26 01:23 | 48.11554 | 16.56994 | 609 ft | 11 kts | 101° |
| 2026-04-26 01:23 | 48.11535 | 16.57056 | 612 ft | 5 kts | 113° |
| 2026-04-26 01:24 | 48.11550 | 16.57090 | 617 ft | 4 kts | 28° |
| 2026-04-26 01:24 | 48.11579 | 16.57111 | 617 ft | 5 kts | 25° |
| 2026-04-26 01:24 | 48.11602 | 16.57129 | 609 ft | 3 kts | 27° |
| 2026-04-26 01:24 | 48.11605 | 16.57131 | 609 ft | 0 kts | 26° |